Time;durP1;ratioP1;P1;durP2;ratioP2;P2;SDS_P1;SDS_P2;PMS_P1;PMS_P2;Temp;Humidity;BMP_temperature;BMP_pressure;BME280_temperature;BME280_humidity;BME280_pressure;Samples;Min_cycle;Max_cycle;Signal;HPM_P1;HPM_P2
2020/12/22 00:00:57;;;;;;;5.80;2.88;;;;;;;17.64;60.66;100504.19;5449446;24;20066;-83
2020/12/22 00:05:57;;;;;;;6.57;2.90;;;;;;;17.66;60.82;100494.63;5509774;24;20057;-83
2020/12/22 00:08:23;;;;;;;5.43;3.20;;;;;;;17.65;60.93;100492.03;4836444;29;20077;-83
2020/12/22 00:10:48;;;;;;;4.45;2.50;;;;;;;17.64;60.83;100487.75;4867395;29;20017;-82
2020/12/22 00:28:45;;;;;;;4.88;2.30;;;;;;;17.64;60.76;100479.94;5598697;24;20049;-83
2020/12/22 01:12:36;;;;;;;3.47;1.70;;;;;;;17.62;60.69;100486.91;5540518;24;20129;-79
2020/12/22 01:15:12;;;;;;;3.55;1.80;;;;;;;17.61;60.41;100499.03;4834740;29;20162;-79
2020/12/22 01:17:37;;;;;;;3.03;1.60;;;;;;;17.62;60.50;100487.75;4841166;29;20036;-78
2020/12/22 01:20:06;;;;;;;3.85;1.70;;;;;;;17.62;60.72;100477.34;4840227;29;20598;-78
2020/12/22 01:27:42;;;;;;;3.05;1.77;;;;;;;17.63;60.64;100493.81;5230267;23;20129;-79
2020/12/22 01:30:07;;;;;;;4.30;1.60;;;;;;;17.62;60.71;100490.34;4831558;29;20489;-80
2020/12/22 01:32:33;;;;;;;2.67;1.42;;;;;;;17.61;60.62;100495.56;4839626;29;20033;-80
2020/12/22 01:34:58;;;;;;;2.78;1.38;;;;;;;17.63;60.52;100497.25;4848671;29;20120;-78
2020/12/22 01:37:24;;;;;;;3.00;1.48;;;;;;;17.61;60.60;100501.63;4831853;29;20046;-78
2020/12/22 01:39:49;;;;;;;3.65;1.58;;;;;;;17.61;60.97;100501.63;4847648;29;20030;-77
2020/12/22 01:42:14;;;;;;;2.08;1.23;;;;;;;17.62;60.47;100503.38;4830847;29;20035;-78
2020/12/22 01:44:40;;;;;;;3.75;1.50;;;;;;;17.60;60.41;100499.91;4833319;29;20034;-78
2020/12/22 01:47:05;;;;;;;2.67;1.48;;;;;;;17.60;60.42;100505.13;4826190;29;20485;-80
2020/12/22 01:49:34;;;;;;;4.75;1.30;;;;;;;17.60;60.23;100502.53;4820889;29;20400;-81
2020/12/22 01:52:00;;;;;;;2.97;1.40;;;;;;;17.61;60.37;100516.38;4829735;29;20055;-80
2020/12/22 01:54:26;;;;;;;2.97;1.52;;;;;;;17.60;60.41;100518.13;4850641;29;20488;-80
2020/12/22 01:56:58;;;;;;;3.92;1.40;;;;;;;17.61;60.41;100508.59;4827016;29;20481;-80
2020/12/22 01:59:25;;;;;;;1.73;1.15;;;;;;;17.62;60.52;100511.16;4845920;29;20085;-80
2020/12/22 02:01:52;;;;;;;2.72;1.55;;;;;;;17.60;60.81;100505.13;4861260;29;20040;-78
2020/12/22 02:04:17;;;;;;;2.33;1.25;;;;;;;17.61;60.41;100521.59;4843949;29;20374;-78
2020/12/22 02:06:43;;;;;;;2.65;1.20;;;;;;;17.60;60.43;100517.28;4856855;29;20025;-80
2020/12/22 02:09:09;;;;;;;2.65;1.33;;;;;;;17.59;60.47;100515.56;4868404;29;20041;-80
2020/12/22 02:11:37;;;;;;;3.10;1.40;;;;;;;17.60;60.32;100512.94;4853522;29;20064;-80
2020/12/22 02:14:04;;;;;;;2.67;1.30;;;;;;;17.60;60.53;100514.69;4845482;29;20033;-80
2020/12/22 02:16:30;;;;;;;3.65;1.50;;;;;;;17.61;60.60;100522.44;4841612;29;20457;-80
2020/12/22 02:18:56;;;;;;;3.75;1.60;;;;;;;17.60;60.48;100515.53;4847203;29;20038;-80
2020/12/22 02:21:22;;;;;;;1.95;1.10;;;;;;;17.60;60.45;100533.75;4850307;29;20029;-80
2020/12/22 02:23:48;;;;;;;2.38;1.17;;;;;;;17.60;60.47;100538.94;4816608;29;20045;-80
2020/12/22 02:26:18;;;;;;;2.13;1.10;;;;;;;17.61;60.62;100526.78;4847494;29;20129;-80
2020/12/22 02:28:43;;;;;;;2.17;1.13;;;;;;;17.60;60.33;100527.69;4853498;29;20053;-80
2020/12/22 02:31:09;;;;;;;1.95;1.08;;;;;;;17.61;60.44;100539.81;4847602;29;20037;-80
2020/12/22 02:33:34;;;;;;;2.53;1.05;;;;;;;17.61;60.42;100547.63;4845615;29;20025;-80
2020/12/22 02:36:00;;;;;;;3.58;1.00;;;;;;;17.60;60.41;100549.38;4831931;29;20148;-80
2020/12/22 02:38:25;;;;;;;2.85;1.10;;;;;;;17.59;60.28;100541.56;4860613;29;20086;-79
2020/12/22 02:40:51;;;;;;;1.63;0.90;;;;;;;17.60;60.22;100536.34;4838935;29;20396;-79
2020/12/22 02:43:17;;;;;;;2.05;1.10;;;;;;;17.60;60.57;100530.28;4849463;29;20043;-80
2020/12/22 02:45:43;;;;;;;3.03;1.10;;;;;;;17.59;60.55;100544.16;4834801;29;20389;-80
2020/12/22 02:48:12;;;;;;;2.00;1.00;;;;;;;17.59;60.25;100538.97;4852742;29;20036;-80
2020/12/22 02:50:38;;;;;;;2.17;1.17;;;;;;;17.60;60.49;100551.13;4846198;29;20030;-80
2020/12/22 02:53:04;;;;;;;3.83;1.20;;;;;;;17.59;60.35;100537.22;4832637;29;20367;-80
2020/12/22 02:55:30;;;;;;;1.40;1.00;;;;;;;17.59;60.31;100554.56;4849136;29;20030;-80
2020/12/22 02:57:56;;;;;;;3.33;0.85;;;;;;;17.58;60.38;100563.28;4855802;29;20048;-80
2020/12/22 03:00:22;;;;;;;2.33;0.90;;;;;;;17.59;60.40;100564.97;4857448;29;20497;-80
2020/12/22 03:02:48;;;;;;;2.78;1.10;;;;;;;17.59;60.23;100551.97;4846121;29;20033;-80
2020/12/22 03:05:13;;;;;;;2.50;0.90;;;;;;;17.58;60.50;100558.94;4848102;29;20029;-80
2020/12/22 03:07:39;;;;;;;2.15;1.25;;;;;;;17.59;60.52;100567.59;4831581;29;20369;-80
2020/12/22 05:29:44;;;;;;;3.90;1.13;;;;;;;17.53;60.08;100679.53;5735814;23;20060;-79
2020/12/22 05:32:10;;;;;;;2.83;1.30;;;;;;;17.53;59.94;100684.75;4860252;29;20040;-79
2020/12/22 05:34:35;;;;;;;2.45;1.00;;;;;;;17.53;60.12;100689.94;4841867;29;20409;-79
2020/12/22 05:37:08;;;;;;;4.07;1.08;;;;;;;17.52;60.04;100690.84;4810497;29;20041;-78
2020/12/22 05:39:38;;;;;;;3.85;1.15;;;;;;;17.53;60.05;100702.97;4835915;29;20038;-79
2020/12/22 05:42:15;;;;;;;3.13;1.08;;;;;;;17.52;59.85;100699.50;4852435;29;20108;-79
2020/12/22 05:44:52;;;;;;;3.88;1.30;;;;;;;17.53;60.09;100703.84;4843665;29;20053;-81
2020/12/22 05:47:23;;;;;;;3.00;1.08;;;;;;;17.54;60.11;100697.75;4869866;29;20029;-80
2020/12/22 05:49:56;;;;;;;2.72;1.20;;;;;;;17.50;60.00;100690.84;4832768;29;20427;-79
2020/12/22 05:52:48;;;;;;;3.83;1.45;;;;;;;17.53;60.05;100700.34;4849702;29;20051;-80
2020/12/22 05:55:50;;;;;;;3.08;1.10;;;;;;;17.54;60.05;100696.88;4821403;29;20050;-82
2020/12/22 06:12:07;;;;;;;8.18;3.05;;;;;;;17.57;60.22;100720.25;5718774;24;20719;-82
2020/12/22 07:20:55;;;;;;;4.25;1.70;;;;;;;17.86;60.27;100837.97;5449639;23;20080;-82
2020/12/22 07:23:21;;;;;;;4.15;1.70;;;;;;;17.85;60.12;100854.44;4875253;29;20089;-80
2020/12/22 07:25:47;;;;;;;4.78;1.73;;;;;;;17.86;60.22;100850.13;4887726;29;20033;-80
2020/12/22 07:28:12;;;;;;;5.00;1.90;;;;;;;17.85;60.27;100850.97;4872346;29;20033;-80
2020/12/22 07:30:38;;;;;;;4.82;1.80;;;;;;;17.85;59.97;100853.59;4854136;29;20041;-80
2020/12/22 07:33:04;;;;;;;3.22;1.60;;;;;;;17.86;60.16;100853.59;4869124;29;20029;-80
2020/12/22 07:35:31;;;;;;;4.85;1.63;;;;;;;17.87;60.24;100867.44;4871418;29;20062;-80
2020/12/22 07:38:16;;;;;;;4.43;1.83;;;;;;;17.92;60.04;100870.00;4862794;29;20033;-81
2020/12/22 07:40:48;;;;;;;5.00;1.77;;;;;;;17.88;60.07;100879.59;4876853;29;20056;-81
2020/12/22 08:04:27;;;;;;;3.30;1.40;;;;;;;17.96;60.07;100963.69;5824817;24;20017;-84
2020/12/22 08:16:39;;;;;;;4.15;1.60;;;;;;;17.99;59.80;101000.13;5065521;24;20053;-83
2020/12/22 08:25:11;;;;;;;3.60;1.30;;;;;;;18.01;60.02;101037.44;4713834;27;20137;-81
2020/12/22 08:27:37;;;;;;;3.60;1.50;;;;;;;18.02;60.33;101049.56;4842854;29;20046;-80
2020/12/22 08:30:16;;;;;;;5.30;1.52;;;;;;;18.01;60.11;101053.06;4824178;29;20079;-80
2020/12/22 08:32:44;;;;;;;3.50;1.40;;;;;;;18.03;59.76;101066.03;4843148;29;20097;-80
2020/12/22 08:35:09;;;;;;;4.07;1.25;;;;;;;18.03;60.13;101061.72;4841417;29;20505;-80
2020/12/22 08:37:35;;;;;;;3.83;1.70;;;;;;;18.04;59.89;101057.38;4817552;29;20038;-81
2020/12/22 08:59:06;;;;;;;4.82;1.67;;;;;;;18.06;59.86;101108.56;5189112;23;20061;-86
2020/12/22 09:48:05;;;;;;;2.75;0.90;;;;;;;18.14;59.70;101238.75;5826421;24;20026;-83
2020/12/22 10:23:00;;;;;;;1.75;0.90;;;;;;;18.07;59.65;101317.78;5913919;23;20670;-80
2020/12/22 10:25:33;;;;;;;1.75;1.00;;;;;;;18.08;59.37;101320.38;4805267;29;20118;-81
2020/12/22 10:42:01;;;;;;;1.92;0.75;;;;;;;18.14;59.42;101326.44;5045974;23;20516;-80
2020/12/22 10:44:26;;;;;;;1.88;0.80;;;;;;;18.16;59.32;101330.78;4814380;29;20437;-80
2020/12/22 10:46:51;;;;;;;2.67;0.90;;;;;;;18.17;58.96;101339.47;4816135;29;20034;-80
2020/12/22 10:49:17;;;;;;;1.45;0.73;;;;;;;18.18;59.23;101343.78;4811176;29;20044;-79
2020/12/22 10:51:42;;;;;;;2.15;0.88;;;;;;;18.17;59.21;101342.06;4818042;29;20086;-80
2020/12/22 10:54:07;;;;;;;2.30;0.90;;;;;;;18.19;59.08;101341.19;4845354;29;20076;-79
2020/12/22 10:56:33;;;;;;;1.55;0.70;;;;;;;18.20;58.88;101344.63;4829371;29;20038;-80
2020/12/22 11:01:33;;;;;;;1.73;0.70;;;;;;;18.22;58.95;101355.91;5304543;24;20021;-85
2020/12/22 11:03:59;;;;;;;1.95;0.88;;;;;;;18.20;58.94;101345.50;5054043;24;20072;-83
2020/12/22 11:06:40;;;;;;;1.95;0.70;;;;;;;18.22;58.87;101355.91;5043097;24;20065;-86
2020/12/22 11:09:07;;;;;;;1.23;0.57;;;;;;;18.21;58.95;101360.28;4866781;29;20070;-85
2020/12/22 11:14:16;;;;;;;1.73;0.80;;;;;;;18.22;58.70;101364.59;4865493;29;20050;-85
2020/12/22 11:16:42;;;;;;;1.65;0.85;;;;;;;18.24;59.01;101364.59;4837061;29;20038;-88
2020/12/22 11:19:07;;;;;;;1.98;0.70;;;;;;;18.26;58.70;101376.75;4851788;29;20030;-87
2020/12/22 11:29:18;;;;;;;2.65;0.85;;;;;;;18.27;58.81;101373.28;4950017;24;20068;-82
2020/12/22 11:31:56;;;;;;;1.88;0.80;;;;;;;18.29;58.42;101375.84;4872647;29;20057;-82
2020/12/22 11:35:12;;;;;;;1.30;0.60;;;;;;;18.32;58.77;101380.22;4881522;29;20033;-81
2020/12/22 11:37:43;;;;;;;1.60;0.77;;;;;;;18.32;58.65;101385.44;4877689;29;20040;-80
2020/12/22 11:40:09;;;;;;;1.48;0.70;;;;;;;18.31;58.66;101389.75;4873195;29;20433;-82
2020/12/22 11:42:36;;;;;;;10.98;4.80;;;;;;;18.32;58.72;101401.91;4870855;29;20043;-81
2020/12/22 11:45:11;;;;;;;55.28;35.40;;;;;;;18.32;58.69;101401.06;4876318;29;20029;-83
2020/12/22 11:47:44;;;;;;;76.45;47.75;;;;;;;18.35;58.64;101414.91;4865778;29;20060;-80
2020/12/22 11:50:12;;;;;;;66.80;40.00;;;;;;;18.36;58.85;101408.84;4888245;29;20032;-81
2020/12/22 11:52:41;;;;;;;61.88;38.42;;;;;;;18.36;58.58;101408.84;4873561;29;20176;-79
2020/12/22 11:55:07;;;;;;;60.13;37.30;;;;;;;18.36;58.79;101408.84;4861266;29;20048;-82
2020/12/22 12:00:55;;;;;;;62.72;36.92;;;;;;;18.36;58.61;101398.44;4893440;29;20051;-83
2020/12/22 12:12:25;;;;;;;58.17;34.10;;;;;;;18.32;58.58;101417.56;5132750;24;20075;-84
2020/12/22 12:14:57;;;;;;;53.22;32.78;;;;;;;18.30;58.71;101422.75;4853076;29;20045;-82
2020/12/22 12:17:22;;;;;;;52.33;32.38;;;;;;;18.32;58.65;101429.72;4849605;29;20041;-80
2020/12/22 12:19:48;;;;;;;51.17;32.65;;;;;;;18.29;58.68;101433.19;4844080;29;20026;-80
2020/12/22 12:22:13;;;;;;;54.28;32.17;;;;;;;18.29;58.71;101439.28;4828338;29;20097;-80
2020/12/22 12:24:38;;;;;;;50.88;30.30;;;;;;;18.28;58.52;101441.88;4845448;29;20507;-82
2020/12/22 12:27:05;;;;;;;51.90;30.80;;;;;;;18.28;58.82;101449.69;4869242;29;20033;-81
2020/12/22 12:29:31;;;;;;;50.33;30.13;;;;;;;18.27;58.73;101446.22;4835503;29;20041;-81
2020/12/22 12:31:56;;;;;;;48.65;29.70;;;;;;;18.26;58.61;101448.81;4866937;29;20046;-81
2020/12/22 12:34:22;;;;;;;46.08;28.42;;;;;;;18.24;58.80;101445.34;4865316;29;20030;-80
2020/12/22 12:36:51;;;;;;;47.92;29.50;;;;;;;18.25;58.91;101434.09;4843095;29;20037;-81
2020/12/22 12:39:17;;;;;;;45.05;27.90;;;;;;;18.26;58.92;101443.63;4847062;29;20057;-81
2020/12/22 12:41:48;;;;;;;44.00;27.38;;;;;;;18.24;58.70;101438.41;4846198;29;20090;-80
2020/12/22 12:44:13;;;;;;;47.17;26.65;;;;;;;18.24;58.95;101434.94;4847187;29;20090;-80
2020/12/22 12:46:39;;;;;;;42.40;26.38;;;;;;;18.26;58.57;101443.63;4827117;29;20393;-81
2020/12/22 12:49:04;;;;;;;39.40;25.60;;;;;;;18.26;58.72;101428.84;4850817;29;20037;-80
2020/12/22 12:51:30;;;;;;;41.30;25.67;;;;;;;18.24;58.52;101430.59;4837446;29;20030;-82
2020/12/22 12:53:56;;;;;;;40.50;25.02;;;;;;;18.25;58.70;101434.94;4822734;29;20192;-81
2020/12/22 12:56:21;;;;;;;39.00;24.23;;;;;;;18.24;58.61;101440.16;4867516;29;20507;-82
2020/12/22 12:58:47;;;;;;;38.03;23.10;;;;;;;18.26;58.58;101433.19;4859263;29;20030;-84
2020/12/22 13:01:13;;;;;;;37.88;24.08;;;;;;;18.25;58.52;101439.28;4864528;29;20436;-81
2020/12/22 13:03:42;;;;;;;35.20;22.23;;;;;;;18.23;58.76;101438.44;4832344;29;20025;-80
2020/12/22 13:06:12;;;;;;;36.17;22.08;;;;;;;18.24;58.66;101434.94;4849089;29;20476;-82
2020/12/22 13:08:41;;;;;;;38.92;22.30;;;;;;;18.23;58.73;101435.81;4845092;29;20072;-81
2020/12/22 13:11:07;;;;;;;36.80;22.63;;;;;;;18.21;58.59;101441.03;4834641;29;20105;-83
2020/12/22 13:13:53;;;;;;;34.15;21.98;;;;;;;18.21;58.48;101443.63;4873568;29;20061;-81
2020/12/22 13:16:19;;;;;;;34.70;21.98;;;;;;;18.20;58.41;101443.63;4858938;29;20033;-80
2020/12/22 13:18:44;;;;;;;33.05;20.42;;;;;;;18.22;58.48;101454.91;4864495;29;20089;-82
2020/12/22 13:21:19;;;;;;;29.60;19.45;;;;;;;18.23;58.30;101461.88;4863315;29;20010;-82
2020/12/22 13:27:34;;;;;;;27.98;17.92;;;;;;;18.25;58.47;101458.38;4773536;30;20074;-84
2020/12/22 13:30:42;;;;;;;28.70;17.67;;;;;;;18.26;58.22;101467.06;4763185;30;20059;-82
2020/12/22 13:33:09;;;;;;;26.63;17.42;;;;;;;18.27;58.33;101476.63;4794971;29;20034;-83
2020/12/22 14:02:37;;;;;;;20.48;13.57;;;;;;;18.35;57.96;101468.78;5150637;24;20421;-84
2020/12/22 14:05:02;;;;;;;20.00;12.75;;;;;;;18.35;58.01;101477.47;4848450;29;20058;-82
2020/12/22 14:07:28;;;;;;;18.90;12.48;;;;;;;18.36;57.80;101476.59;4851017;29;20074;-83
2020/12/22 14:10:13;;;;;;;18.23;12.25;;;;;;;18.37;57.83;101486.13;4858145;29;20131;-83
2020/12/22 14:12:39;;;;;;;18.08;11.82;;;;;;;18.38;58.12;101487.00;4842302;29;20037;-83
2020/12/22 14:15:13;;;;;;;19.40;12.85;;;;;;;18.37;57.82;101490.50;4856113;29;20026;-83
2020/12/22 14:17:39;;;;;;;15.57;11.32;;;;;;;18.38;57.83;101492.22;4856989;29;20083;-83
2020/12/22 14:20:07;;;;;;;16.42;11.70;;;;;;;18.40;57.82;101483.53;4859355;29;20038;-83
2020/12/22 14:22:34;;;;;;;18.67;11.65;;;;;;;18.40;57.86;101480.03;4838872;29;20483;-83
2020/12/22 14:24:59;;;;;;;17.90;11.27;;;;;;;18.40;57.58;101477.44;4858203;29;20126;-82
2020/12/22 14:27:25;;;;;;;16.27;10.50;;;;;;;18.39;57.83;101476.59;4853455;29;20106;-82
2020/12/22 14:29:50;;;;;;;16.15;10.70;;;;;;;18.40;57.67;101480.03;4854657;29;20393;-82
2020/12/22 14:32:16;;;;;;;15.93;10.93;;;;;;;18.43;57.51;101487.88;4856883;29;20047;-84
2020/12/22 14:34:43;;;;;;;16.33;10.80;;;;;;;18.42;57.58;101496.53;4858195;29;20063;-82
2020/12/22 14:37:10;;;;;;;14.52;9.88;;;;;;;18.43;57.69;101501.75;4841459;29;20022;-83
2020/12/22 14:39:41;;;;;;;15.70;9.25;;;;;;;18.44;57.67;101508.72;4861615;29;20038;-85
2020/12/22 14:42:07;;;;;;;21.95;12.40;;;;;;;18.48;57.51;101505.22;4838324;29;20030;-81
2020/12/22 14:44:32;;;;;;;23.42;12.43;;;;;;;18.51;57.40;101496.53;4845963;29;20497;-82
2020/12/22 14:46:58;;;;;;;19.92;10.82;;;;;;;18.52;57.48;101498.28;4837165;29;20450;-82
2020/12/22 14:49:23;;;;;;;20.67;11.23;;;;;;;18.52;57.48;101506.09;4828474;29;20037;-81
2020/12/22 14:51:49;;;;;;;20.70;10.25;;;;;;;18.52;57.52;101503.47;4844444;29;20486;-82
2020/12/22 14:54:15;;;;;;;17.83;10.27;;;;;;;18.50;57.52;101506.09;4825269;29;20026;-82
2020/12/22 14:56:40;;;;;;;14.55;9.82;;;;;;;18.51;57.58;101506.97;4832921;29;20430;-81
2020/12/22 14:59:06;;;;;;;15.05;9.02;;;;;;;18.50;57.43;101507.81;4841945;29;20125;-80
2020/12/22 15:01:33;;;;;;;14.50;9.60;;;;;;;18.50;57.58;101510.44;4840913;29;20056;-81
2020/12/22 15:03:58;;;;;;;14.80;9.25;;;;;;;18.52;57.32;101510.44;4817581;29;20111;-81
2020/12/22 15:06:24;;;;;;;15.05;8.75;;;;;;;18.50;57.59;101516.50;4825252;29;20474;-81
2020/12/22 15:08:49;;;;;;;12.13;8.18;;;;;;;18.52;57.54;101516.50;4828953;29;20036;-81
2020/12/22 15:11:15;;;;;;;15.57;8.48;;;;;;;18.50;57.62;101513.03;4827784;29;20038;-82
2020/12/22 15:13:41;;;;;;;13.30;7.90;;;;;;;18.49;57.42;101516.53;4845777;29;20124;-82
2020/12/22 15:16:07;;;;;;;13.10;7.63;;;;;;;18.48;57.40;101522.59;4841390;29;20183;-80
2020/12/22 15:18:35;;;;;;;14.85;8.38;;;;;;;18.46;57.41;101526.94;4841050;29;20034;-81
2020/12/22 15:21:00;;;;;;;12.52;7.75;;;;;;;18.44;57.62;101523.47;4838235;29;20038;-80
2020/12/22 15:23:26;;;;;;;13.45;7.85;;;;;;;18.42;57.69;101517.41;4834929;29;20155;-81
2020/12/22 15:25:51;;;;;;;12.68;7.72;;;;;;;18.40;57.50;101517.41;4843452;29;20018;-79
2020/12/22 15:31:38;;;;;;;10.57;6.57;;;;;;;18.40;57.44;101520.03;4847580;29;20052;-81
2020/12/22 15:34:06;;;;;;;13.02;7.43;;;;;;;18.43;57.58;101522.63;4847001;29;20446;-79
2020/12/22 15:39:17;;;;;;;13.68;6.53;;;;;;;18.29;57.70;101522.66;5040331;24;20046;-81
2020/12/22 16:23:30;;;;;;;9.10;5.80;;;;;;;18.14;57.79;101532.19;5750479;24;20032;-81
2020/12/22 16:25:56;;;;;;;9.95;5.32;;;;;;;18.14;57.52;101534.81;4843083;29;20049;-80
2020/12/22 16:28:24;;;;;;;9.85;5.53;;;;;;;18.13;57.64;101536.53;4871435;29;20048;-80
2020/12/22 16:30:50;;;;;;;8.95;5.30;;;;;;;18.12;57.70;101540.03;4833538;29;20040;-80
2020/12/22 16:33:18;;;;;;;8.25;5.28;;;;;;;18.14;57.77;101543.50;4848692;29;20485;-81
2020/12/22 16:35:43;;;;;;;8.88;5.38;;;;;;;18.12;58.06;101540.03;4852849;29;20021;-80
2020/12/22 16:38:17;;;;;;;7.53;4.70;;;;;;;18.12;57.89;101536.53;4860899;29;20038;-81
2020/12/22 16:51:15;;;;;;;8.90;5.10;;;;;;;18.10;57.80;101507.91;5849474;23;20219;-82
2020/12/22 16:53:40;;;;;;;7.63;4.53;;;;;;;18.12;57.47;101500.97;4844185;29;20098;-76
2020/12/22 16:56:05;;;;;;;7.60;4.93;;;;;;;18.13;57.43;101489.66;4807637;29;20439;-77
2020/12/22 16:58:31;;;;;;;8.68;4.68;;;;;;;18.07;57.63;101487.06;4842888;29;20117;-77
2020/12/22 17:00:56;;;;;;;6.35;4.50;;;;;;;18.01;57.62;101485.34;4820210;29;20030;-77
2020/12/22 17:03:22;;;;;;;7.30;4.55;;;;;;;17.98;57.86;101492.28;4809371;29;20145;-77
2020/12/22 17:05:49;;;;;;;8.63;4.75;;;;;;;17.94;57.96;101496.63;4825649;29;20163;-77
2020/12/22 17:08:14;;;;;;;7.25;4.78;;;;;;;17.94;58.01;101499.22;4825325;29;20025;-77
2020/12/22 17:10:42;;;;;;;7.90;4.75;;;;;;;17.93;57.86;101496.63;4834944;29;20038;-78
2020/12/22 17:13:07;;;;;;;7.88;4.68;;;;;;;17.93;58.03;101492.28;4830469;29;20053;-77
2020/12/22 17:15:32;;;;;;;6.68;4.85;;;;;;;17.92;57.89;101481.88;4810870;29;20085;-78
2020/12/22 17:17:57;;;;;;;6.47;4.00;;;;;;;17.92;58.02;101490.56;4793071;29;20119;-77
2020/12/22 17:20:24;;;;;;;7.82;4.85;;;;;;;17.94;57.96;101506.16;4829378;29;20030;-80
2020/12/22 17:25:25;;;;;;;9.77;4.97;;;;;;;17.93;58.02;101523.53;4930929;23;20066;-79
2020/12/22 17:28:11;;;;;;;9.60;4.70;;;;;;;17.93;57.89;101512.25;4848418;29;20026;-80
2020/12/22 17:34:33;;;;;;;8.38;3.88;;;;;;;17.93;57.96;101518.34;4843150;29;20041;-79
2020/12/22 17:37:42;;;;;;;9.50;4.68;;;;;;;17.92;58.00;101529.63;4846782;29;20030;-80
2020/12/22 17:45:51;;;;;;;7.80;3.97;;;;;;;17.91;58.19;101521.81;5150871;24;20406;-81
2020/12/22 17:48:16;;;;;;;7.47;4.15;;;;;;;17.94;58.29;101532.22;4843689;29;20041;-81
2020/12/22 17:50:41;;;;;;;8.30;4.13;;;;;;;17.94;58.40;101540.03;4817340;29;20067;-80
2020/12/22 17:53:07;;;;;;;8.07;4.45;;;;;;;17.93;58.41;101535.69;4826480;29;20038;-81
2020/12/22 17:55:32;;;;;;;6.78;4.03;;;;;;;17.93;58.46;101535.69;4811234;29;20034;-81
2020/12/22 17:57:57;;;;;;;6.00;3.85;;;;;;;17.91;58.75;101527.00;4815368;29;20098;-80
2020/12/22 18:00:43;;;;;;;7.10;4.18;;;;;;;17.97;58.78;101527.88;4820771;29;20105;-82
2020/12/22 18:03:09;;;;;;;5.95;3.90;;;;;;;17.96;58.42;101526.13;4827396;29;20489;-80
2020/12/22 18:05:34;;;;;;;6.45;3.78;;;;;;;17.91;58.63;101520.06;4828383;29;20095;-80
2020/12/22 18:07:59;;;;;;;7.05;4.00;;;;;;;17.89;58.80;101524.41;4814300;29;20129;-80
2020/12/22 18:10:25;;;;;;;6.32;4.10;;;;;;;17.86;58.88;101524.41;4845118;29;20061;-80
2020/12/22 18:12:50;;;;;;;5.55;3.65;;;;;;;17.84;58.79;101528.75;4797285;29;20049;-80
2020/12/22 18:15:16;;;;;;;6.10;3.83;;;;;;;17.83;58.77;101522.69;4796537;29;20034;-79
2020/12/22 18:17:42;;;;;;;8.25;3.95;;;;;;;17.82;58.68;101517.47;4815964;29;20038;-79
2020/12/22 18:20:07;;;;;;;4.88;3.70;;;;;;;17.82;58.71;101520.94;4828538;29;20045;-79
2020/12/22 18:22:33;;;;;;;6.45;3.95;;;;;;;17.83;58.44;101513.97;4828637;29;20474;-80
2020/12/22 18:24:58;;;;;;;5.35;3.42;;;;;;;17.82;58.28;101509.66;4829840;29;20401;-79
2020/12/22 18:27:25;;;;;;;4.85;3.38;;;;;;;17.81;57.91;101500.06;4799098;29;20054;-80
2020/12/22 18:29:50;;;;;;;6.22;3.65;;;;;;;17.78;57.98;101500.94;4824093;29;20038;-79
2020/12/22 18:32:16;;;;;;;5.28;3.80;;;;;;;17.79;57.85;101513.09;4794367;29;20513;-79
2020/12/22 18:34:41;;;;;;;5.25;3.67;;;;;;;17.79;57.63;101518.31;4817093;29;20042;-80
2020/12/22 18:37:06;;;;;;;3.95;3.30;;;;;;;17.81;57.82;101518.28;4826161;29;20559;-80
2020/12/22 18:39:32;;;;;;;4.95;3.17;;;;;;;17.78;57.85;101521.75;4814826;29;20436;-79
2020/12/22 18:41:58;;;;;;;5.28;3.30;;;;;;;17.77;57.68;101525.25;4784520;29;20070;-80
2020/12/22 18:44:25;;;;;;;5.10;2.97;;;;;;;17.79;57.69;101522.63;4825096;29;20475;-79
2020/12/22 18:46:52;;;;;;;4.43;3.55;;;;;;;17.77;57.80;101526.97;4820235;29;20410;-79
2020/12/22 18:49:21;;;;;;;5.10;3.65;;;;;;;17.76;57.79;101528.69;4809719;29;20129;-80
2020/12/22 18:51:46;;;;;;;5.45;3.08;;;;;;;17.77;57.72;101532.16;4823242;29;20037;-77
2020/12/22 18:54:12;;;;;;;4.82;3.20;;;;;;;17.76;58.01;101528.69;4821872;29;20039;-78
2020/12/22 18:56:37;;;;;;;5.43;3.63;;;;;;;17.78;57.80;101528.72;4803332;29;20038;-78
2020/12/22 18:59:06;;;;;;;6.68;3.30;;;;;;;17.76;57.79;101530.44;4820267;29;20113;-78
2020/12/22 19:01:31;;;;;;;5.70;3.45;;;;;;;17.76;57.77;101525.22;4825107;29;20034;-80
2020/12/22 19:03:57;;;;;;;5.10;3.30;;;;;;;17.75;57.81;101526.97;4809159;29;20042;-77
2020/12/22 19:06:24;;;;;;;5.68;3.28;;;;;;;17.76;57.77;101528.69;4822943;29;20038;-76
2020/12/22 19:08:49;;;;;;;5.80;3.35;;;;;;;17.75;57.38;101531.31;4794076;29;20050;-78
2020/12/22 19:11:17;;;;;;;8.60;3.25;;;;;;;17.76;57.73;101531.31;4803851;29;20069;-76
2020/12/22 19:13:44;;;;;;;4.95;3.22;;;;;;;17.76;57.57;101525.22;4816731;29;20463;-75
2020/12/22 19:16:10;;;;;;;5.68;3.17;;;;;;;17.75;57.80;101519.16;4807137;29;20039;-75
2020/12/22 19:18:35;;;;;;;4.70;3.10;;;;;;;17.76;57.83;101517.44;4804340;29;20057;-75
2020/12/22 19:21:04;;;;;;;4.72;3.38;;;;;;;17.75;57.81;101521.78;4804989;29;20162;-75
2020/12/22 19:23:30;;;;;;;4.43;3.20;;;;;;;17.77;57.62;101532.16;4803861;29;20043;-75
2020/12/22 19:26:02;;;;;;;4.53;3.28;;;;;;;17.73;57.51;101541.72;4816743;29;20045;-75
2020/12/22 19:28:28;;;;;;;4.97;3.40;;;;;;;17.75;57.78;101553.00;4818452;29;20035;-76
2020/12/22 19:30:54;;;;;;;4.32;3.50;;;;;;;17.75;57.48;101566.03;4823241;29;20045;-76
2020/12/22 19:33:19;;;;;;;4.13;3.20;;;;;;;17.74;57.68;101542.59;4832139;29;20402;-75
2020/12/22 19:35:45;;;;;;;4.50;3.05;;;;;;;17.73;57.53;101543.47;4792990;29;20034;-78
2020/12/22 19:38:11;;;;;;;4.28;2.90;;;;;;;17.74;57.69;101553.88;4818525;29;20037;-76
2020/12/22 19:40:38;;;;;;;5.45;2.97;;;;;;;17.74;57.40;101546.06;4808673;29;20109;-76
2020/12/22 19:43:03;;;;;;;3.75;2.83;;;;;;;17.74;57.78;101533.03;4813493;29;20782;-76
2020/12/22 19:45:29;;;;;;;4.15;2.60;;;;;;;17.71;57.62;101537.38;4817394;29;20133;-78
2020/12/22 19:47:55;;;;;;;4.32;3.50;;;;;;;17.72;57.43;101534.75;4818112;29;20055;-78
2020/12/22 19:50:22;;;;;;;4.55;3.30;;;;;;;17.73;57.65;101527.84;4821190;29;20045;-78
2020/12/22 19:52:47;;;;;;;4.50;3.13;;;;;;;17.72;57.50;101521.75;4824614;29;20041;-78
2020/12/22 19:55:13;;;;;;;3.92;2.75;;;;;;;17.72;57.45;101521.75;4806358;29;20789;-78
2020/12/22 19:57:38;;;;;;;4.15;2.90;;;;;;;17.73;57.34;101525.25;4809374;29;20053;-78
2020/12/22 20:00:04;;;;;;;4.10;2.55;;;;;;;17.71;57.49;101526.97;4821827;29;20478;-78
2020/12/22 20:02:29;;;;;;;3.25;2.67;;;;;;;17.73;57.43;101522.66;4803349;29;20142;-78
2020/12/22 20:04:54;;;;;;;4.03;2.78;;;;;;;17.71;57.71;101521.78;4804437;29;20535;-78
2020/12/22 20:07:20;;;;;;;4.10;2.63;;;;;;;17.70;57.51;101515.66;4791975;29;20434;-78
2020/12/22 20:09:45;;;;;;;3.45;2.75;;;;;;;17.72;57.51;101508.72;4809789;29;20034;-78
2020/12/22 20:12:10;;;;;;;4.80;2.85;;;;;;;17.72;57.42;101492.25;4807460;29;20038;-76
2020/12/22 20:14:36;;;;;;;4.00;2.70;;;;;;;17.71;57.44;101500.94;4830120;29;20034;-78
2020/12/22 20:17:01;;;;;;;3.72;2.70;;;;;;;17.70;57.47;101505.25;4809015;29;20034;-78
2020/12/22 20:19:27;;;;;;;4.38;2.60;;;;;;;17.68;57.35;101507.88;4837629;29;20114;-78
2020/12/22 20:21:54;;;;;;;4.03;2.80;;;;;;;17.69;57.41;101514.81;4809635;29;20101;-76
2020/12/22 20:24:20;;;;;;;3.60;2.50;;;;;;;17.71;57.31;101511.38;4820376;29;20435;-79
2020/12/22 20:26:45;;;;;;;3.42;2.40;;;;;;;17.71;57.35;101513.97;4824158;29;20041;-78
2020/12/22 20:29:10;;;;;;;3.92;2.80;;;;;;;17.70;57.41;101513.06;4823823;29;20030;-78
2020/12/22 20:31:36;;;;;;;4.70;2.80;;;;;;;17.69;57.49;101517.41;4814730;29;20067;-78
2020/12/22 20:34:01;;;;;;;3.50;2.78;;;;;;;17.69;57.36;101514.81;4822644;29;20401;-78
2020/12/22 20:36:28;;;;;;;3.70;2.72;;;;;;;17.68;57.39;101513.09;4822532;29;20042;-78
2020/12/22 20:38:54;;;;;;;3.67;2.90;;;;;;;17.71;57.42;101508.75;4823254;29;20129;-76
2020/12/22 20:41:20;;;;;;;3.65;2.42;;;;;;;17.70;57.35;101518.28;4821801;29;20034;-76
2020/12/22 20:43:45;;;;;;;3.97;2.65;;;;;;;17.68;57.43;101512.19;4817944;29;20035;-76